Time;durP1;ratioP1;P1;durP2;ratioP2;P2;SDS_P1;SDS_P2;PMS_P1;PMS_P2;Temp;Humidity;BMP_temperature;BMP_pressure;BME280_temperature;BME280_humidity;BME280_pressure;Samples;Min_cycle;Max_cycle;Signal;HPM_P1;HPM_P2
2022/08/05 00:00:54;;;;;;;;;5.40;5.20;;;;;23.21;58.27;99653.28;5097421;28;8934;-61
2022/08/05 00:03:27;;;;;;;;;4.40;4.20;;;;;23.12;58.23;99656.38;5103055;28;8816;-62
2022/08/05 00:05:58;;;;;;;;;4.40;4.40;;;;;23.02;57.84;99664.97;5117595;28;8851;-62
2022/08/05 00:08:45;;;;;;;;;2.00;1.00;;;;;22.96;58.89;99654.06;5117457;28;8974;-61
2022/08/05 00:11:13;;;;;;;;;4.00;4.00;;;;;22.91;58.31;99656.59;5117683;28;8987;-63
2022/08/05 00:13:54;;;;;;;;;1.60;1.60;;;;;22.86;58.78;99651.78;5107409;28;8822;-62
2022/08/05 00:16:21;;;;;;;;;3.80;3.80;;;;;22.83;58.72;99635.88;5107974;28;8808;-61
2022/08/05 00:19:06;;;;;;;;;4.00;4.00;;;;;22.79;59.13;99625.66;5099467;28;8814;-61
2022/08/05 00:21:34;;;;;;;;;4.00;4.00;;;;;22.76;59.39;99636.94;5095948;28;8833;-61
2022/08/05 00:24:02;;;;;;;;;6.00;5.00;;;;;22.71;59.28;99637.56;5107160;28;8809;-61
2022/08/05 00:26:37;;;;;;;;;4.40;4.00;;;;;22.68;59.05;99635.25;5117478;28;8831;-61
2022/08/05 00:29:13;;;;;;;;;2.80;2.80;;;;;22.64;59.62;99601.41;5106068;28;8849;-63
2022/08/05 00:31:40;;;;;;;;;4.40;4.40;;;;;22.61;59.26;99598.28;5096803;28;8889;-61
2022/08/05 00:34:28;;;;;;;;;2.80;2.00;;;;;22.56;59.45;99606.19;5095896;28;8843;-61
2022/08/05 00:37:16;;;;;;;;;4.00;3.60;;;;;22.54;59.79;99605.56;5096721;28;8823;-62
2022/08/05 00:39:44;;;;;;;;;3.20;2.00;;;;;22.51;59.53;99595.13;5110404;28;9468;-61
2022/08/05 00:42:25;;;;;;;;;3.20;3.20;;;;;22.51;59.85;99592.41;5117392;28;8913;-61
2022/08/05 00:44:58;;;;;;;;;2.00;2.00;;;;;22.50;59.39;99591.59;5117106;28;8966;-62
2022/08/05 00:47:26;;;;;;;;;5.00;5.00;;;;;22.49;59.40;99584.47;5116811;28;8955;-62
2022/08/05 00:50:13;;;;;;;;;4.80;2.00;;;;;22.46;59.92;99575.91;5098343;28;8823;-62
2022/08/05 00:52:41;;;;;;;;;2.40;2.40;;;;;22.43;59.62;99581.75;5096587;28;8838;-61
2022/08/05 00:55:13;;;;;;;;;2.80;2.00;;;;;22.37;60.10;99575.22;5096585;28;8818;-61
2022/08/05 00:57:41;;;;;;;;;2.00;2.00;;;;;22.34;59.82;99563.94;5096350;28;8842;-61
2022/08/05 01:00:25;;;;;;;;;2.00;2.00;;;;;22.29;59.85;99561.84;5115689;28;8808;-60
2022/08/05 01:02:53;;;;;;;;;2.00;2.00;;;;;22.25;59.64;99560.59;5116658;28;8870;-61
2022/08/05 01:05:22;;;;;;;;;2.00;2.00;;;;;22.22;60.03;99563.72;5098947;28;8912;-61
2022/08/05 01:07:51;;;;;;;;;4.20;4.20;;;;;22.19;59.75;99566.84;5115717;28;8831;-60
2022/08/05 01:10:39;;;;;;;;;2.80;2.00;;;;;22.17;60.30;99568.91;5095992;28;8819;-62
2022/08/05 01:13:18;;;;;;;;;1.60;1.60;;;;;22.12;59.88;99574.13;5096042;28;8826;-61
2022/08/05 01:15:53;;;;;;;;;3.80;3.20;;;;;22.06;60.16;99577.66;5096048;28;8833;-61
2022/08/05 01:18:24;;;;;;;;;5.00;4.40;;;;;22.02;60.23;99581.00;5097972;28;8842;-61
2022/08/05 01:20:53;;;;;;;;;2.80;2.80;;;;;21.94;60.38;99583.88;5115873;28;8820;-61
2022/08/05 01:23:23;;;;;;;;;2.00;2.00;;;;;21.88;59.90;99577.38;5116531;28;8820;-61
2022/08/05 01:26:01;;;;;;;;;1.60;1.00;;;;;21.83;60.61;99587.16;5116535;28;8843;-61
2022/08/05 01:28:28;;;;;;;;;2.00;2.00;;;;;21.77;60.32;99591.53;5114263;28;8820;-63
2022/08/05 01:30:56;;;;;;;;;2.80;2.80;;;;;21.75;60.43;99584.63;5096011;28;9475;-62
2022/08/05 01:33:24;;;;;;;;;2.00;1.60;;;;;21.71;60.16;99583.38;5097165;28;8972;-63
2022/08/05 01:35:52;;;;;;;;;1.60;1.60;;;;;21.67;60.86;99587.50;5095989;28;8834;-61
2022/08/05 01:38:23;;;;;;;;;3.60;2.80;;;;;21.63;60.79;99591.66;5096845;28;8902;-61
2022/08/05 01:40:56;;;;;;;;;4.00;4.00;;;;;21.60;60.58;99592.03;5116187;28;8856;-61
2022/08/05 01:43:23;;;;;;;;;1.40;1.40;;;;;21.58;60.59;99594.09;5116238;28;8836;-62
2022/08/05 01:45:51;;;;;;;;;2.80;2.80;;;;;21.56;60.42;99597.00;5116549;28;8843;-62
2022/08/05 01:48:23;;;;;;;;;2.00;2.00;;;;;21.57;60.29;99603.28;5114441;28;8865;-63
2022/08/05 01:50:51;;;;;;;;;2.80;2.00;;;;;21.56;60.31;99601.59;5078126;28;8902;-61
2022/08/05 01:53:20;;;;;;;;;2.00;2.00;;;;;21.54;60.29;99598.25;5095544;28;8829;-61
2022/08/05 01:56:08;;;;;;;;;1.00;1.00;;;;;21.52;60.70;99592.19;5080793;28;8858;-62
2022/08/05 01:58:36;;;;;;;;;2.00;1.40;;;;;21.50;60.18;99591.56;5097472;28;8840;-61
2022/08/05 02:01:11;;;;;;;;;2.00;2.00;;;;;21.47;60.70;99597.38;5115535;28;8820;-62
2022/08/05 02:03:38;;;;;;;;;2.00;2.00;;;;;21.44;60.70;99595.06;5116236;28;8840;-61
2022/08/05 02:06:06;;;;;;;;;2.00;2.00;;;;;21.39;60.88;99598.38;5115787;28;8828;-61
2022/08/05 02:08:54;;;;;;;;;1.80;1.80;;;;;21.33;60.64;99593.75;5110317;28;8861;-62
2022/08/05 02:11:31;;;;;;;;;2.80;2.80;;;;;21.30;60.54;99593.31;5095561;28;8838;-61
2022/08/05 02:14:00;;;;;;;;;1.00;1.00;;;;;21.27;61.01;99585.59;5095461;28;8826;-61
2022/08/05 02:16:28;;;;;;;;;1.80;1.80;;;;;21.26;60.90;99583.91;5095102;28;8946;-61
2022/08/05 02:18:56;;;;;;;;;2.00;2.00;;;;;21.25;60.97;99584.97;5101176;28;8888;-61
2022/08/05 02:21:24;;;;;;;;;0.00;0.00;;;;;21.23;60.63;99595.13;5120352;28;8958;-61
2022/08/05 02:23:51;;;;;;;;;1.00;1.00;;;;;21.20;61.01;99607.19;5120114;28;8820;-63
2022/08/05 02:26:19;;;;;;;;;2.00;2.00;;;;;21.20;60.56;99611.78;5119669;28;8860;-62
2022/08/05 02:28:48;;;;;;;;;5.00;4.00;;;;;21.21;60.67;99619.72;5115634;28;8818;-61
2022/08/05 02:31:16;;;;;;;;;1.80;1.60;;;;;21.24;60.63;99623.88;5098611;28;9487;-62
2022/08/05 02:33:48;;;;;;;;;2.00;1.20;;;;;21.26;60.56;99632.69;5098940;28;8858;-62
2022/08/05 02:36:23;;;;;;;;;2.00;2.00;;;;;21.30;60.35;99623.09;5099271;28;8960;-61
2022/08/05 02:38:54;;;;;;;;;2.00;2.00;;;;;21.36;60.72;99623.16;5102909;28;9626;-61
2022/08/05 02:41:24;;;;;;;;;1.00;1.00;;;;;21.41;60.48;99626.09;5118197;28;8839;-63
2022/08/05 02:44:02;;;;;;;;;2.00;2.00;;;;;21.44;59.97;99641.13;5119288;28;8840;-63
2022/08/05 02:46:39;;;;;;;;;1.00;1.00;;;;;21.43;60.48;99661.16;5119479;28;8859;-61
2022/08/05 02:49:25;;;;;;;;;2.40;2.40;;;;;21.40;60.14;99677.81;5110763;28;8848;-62
2022/08/05 02:51:52;;;;;;;;;2.00;2.00;;;;;21.35;60.72;99683.78;5098714;28;8841;-61
2022/08/05 02:54:30;;;;;;;;;2.00;2.00;;;;;21.33;60.45;99688.56;5098498;28;8842;-63
2022/08/05 02:57:04;;;;;;;;;4.00;4.00;;;;;21.31;60.21;99684.38;5098655;28;8845;-61
2022/08/05 02:59:52;;;;;;;;;1.00;1.00;;;;;21.32;60.78;99677.94;5110161;28;8820;-61
2022/08/05 03:02:20;;;;;;;;;2.00;2.00;;;;;21.32;60.18;99667.94;5119109;28;8850;-62
2022/08/05 03:04:48;;;;;;;;;6.20;4.40;;;;;21.33;60.37;99668.78;5118817;28;8914;-61
2022/08/05 03:07:19;;;;;;;;;5.60;4.80;;;;;21.39;60.45;99665.25;5119186;28;8840;-63
2022/08/05 03:10:07;;;;;;;;;4.40;4.00;;;;;21.44;60.37;99673.66;5104593;28;9467;-62
2022/08/05 03:12:35;;;;;;;;;4.00;4.00;;;;;21.44;60.35;99684.50;5098776;28;9472;-62
2022/08/05 03:15:03;;;;;;;;;2.40;2.40;;;;;21.43;60.16;99696.38;5098722;28;8968;-62
2022/08/05 03:17:33;;;;;;;;;2.40;2.40;;;;;21.43;60.89;99688.25;5098060;28;8826;-62
2022/08/05 03:20:08;;;;;;;;;5.60;4.80;;;;;21.40;60.90;99704.91;5111408;28;8921;-62
2022/08/05 03:22:36;;;;;;;;;6.20;5.00;;;;;21.33;60.71;99709.44;5119048;28;8854;-61
2022/08/05 03:25:10;;;;;;;;;2.40;2.40;;;;;21.24;60.89;99713.28;5118441;28;8967;-62
2022/08/05 03:27:58;;;;;;;;;1.60;1.00;;;;;21.17;61.36;99704.25;5118313;28;8879;-62
2022/08/05 03:30:27;;;;;;;;;2.00;2.00;;;;;21.12;61.40;99706.75;5100926;28;8921;-61
2022/08/05 03:33:01;;;;;;;;;2.00;2.00;;;;;21.07;61.60;99704.63;5098156;28;8834;-64
2022/08/05 03:35:29;;;;;;;;;3.60;3.60;;;;;21.04;61.38;99717.72;5098325;28;8846;-61
2022/08/05 03:38:00;;;;;;;;;5.00;5.00;;;;;20.84;61.98;99739.16;5097941;28;8872;-61
2022/08/05 03:40:28;;;;;;;;;0.80;0.00;;;;;20.67;62.24;99760.38;5113482;28;8858;-60
2022/08/05 03:42:58;;;;;;;;;5.00;5.00;;;;;20.55;62.93;99764.63;5118777;28;8852;-61
2022/08/05 03:45:46;;;;;;;;;6.20;4.60;;;;;20.43;63.19;99763.41;5118337;28;8835;-61
2022/08/05 03:48:25;;;;;;;;;7.20;7.00;;;;;20.34;63.44;99759.13;5118318;28;8867;-61
2022/08/05 03:50:54;;;;;;;;;6.20;5.00;;;;;20.26;63.70;99760.06;5097749;28;8903;-61
2022/08/05 03:53:42;;;;;;;;;5.00;5.00;;;;;20.16;63.49;99732.47;5097611;28;9514;-61
2022/08/05 03:56:29;;;;;;;;;7.80;7.40;;;;;20.18;63.68;99678.22;5097649;28;8878;-60
2022/08/05 03:59:02;;;;;;;;;4.00;4.00;;;;;20.21;64.10;99654.31;5100996;28;8820;-61
2022/08/05 04:01:32;;;;;;;;;7.00;5.00;;;;;20.19;64.26;99621.22;5117075;28;8824;-61
2022/08/05 04:03:59;;;;;;;;;6.20;5.00;;;;;20.23;63.98;99595.47;5116757;28;8832;-62
2022/08/05 04:06:36;;;;;;;;;5.80;5.00;;;;;20.24;64.46;99569.28;5116607;28;8831;-60
2022/08/05 04:09:05;;;;;;;;;9.40;7.00;;;;;20.24;64.43;99558.44;5112800;28;8864;-61
2022/08/05 04:11:34;;;;;;;;;5.00;5.00;;;;;20.22;64.66;99555.94;5096311;28;8964;-61
2022/08/05 04:14:16;;;;;;;;;8.40;5.00;;;;;20.18;65.11;99562.75;5096699;28;8872;-61
2022/08/05 04:16:44;;;;;;;;;7.00;7.00;;;;;20.13;64.69;99554.38;5096066;28;8957;-61
2022/08/05 04:19:12;;;;;;;;;7.00;5.00;;;;;20.09;65.12;99568.50;5100767;28;8973;-61
2022/08/05 04:21:40;;;;;;;;;7.00;7.00;;;;;20.04;65.24;99593.34;5116148;28;8824;-60
2022/08/05 04:24:28;;;;;;;;;9.60;8.80;;;;;19.93;65.68;99610.06;5115883;28;8836;-62
2022/08/05 04:26:56;;;;;;;;;8.40;7.00;;;;;19.88;65.32;99585.44;5116061;28;8850;-61
2022/08/05 04:29:24;;;;;;;;;9.20;7.60;;;;;19.85;66.65;99644.47;5109250;28;8834;-62
2022/08/05 04:31:53;;;;;;;;;5.80;5.00;;;;;19.75;66.33;99643.91;5095759;28;8853;-61
2022/08/05 04:34:23;;;;;;;;;6.80;5.00;;;;;19.73;66.66;99625.19;5096068;28;8854;-62
2022/08/05 04:37:01;;;;;;;;;5.40;5.40;;;;;19.76;66.86;99645.59;5095602;28;8915;-61
2022/08/05 04:39:29;;;;;;;;;5.80;5.40;;;;;19.73;67.05;99668.41;5102473;28;8843;-61
2022/08/05 04:41:58;;;;;;;;;8.00;8.00;;;;;19.69;66.88;99656.31;5117104;28;8914;-61
2022/08/05 04:44:26;;;;;;;;;8.00;7.40;;;;;19.72;66.62;99650.53;5117583;28;8862;-62
2022/08/05 04:46:56;;;;;;;;;7.40;5.80;;;;;19.75;66.60;99649.31;5116992;28;8862;-61
2022/08/05 04:49:27;;;;;;;;;4.20;4.20;;;;;19.77;66.72;99669.72;5110659;28;8822;-61
2022/08/05 04:52:15;;;;;;;;;6.20;6.20;;;;;19.78;66.61;99655.19;5096341;28;8850;-62
2022/08/05 04:54:42;;;;;;;;;5.40;5.40;;;;;19.81;66.09;99648.56;5096088;28;8826;-61
2022/08/05 04:57:10;;;;;;;;;7.80;6.20;;;;;19.85;66.69;99645.31;5095219;28;8922;-61
2022/08/05 04:59:38;;;;;;;;;3.20;2.00;;;;;19.87;66.03;99637.03;5103370;28;8812;-62
2022/08/05 05:02:07;;;;;;;;;4.00;3.20;;;;;19.89;66.10;99638.47;5116466;28;8951;-61
2022/08/05 05:04:55;;;;;;;;;7.60;7.40;;;;;19.93;66.03;99638.94;5115376;28;8852;-61
2022/08/05 05:07:29;;;;;;;;;8.00;8.00;;;;;19.95;65.83;99650.44;5116890;28;8835;-62
2022/08/05 05:10:04;;;;;;;;;4.40;4.40;;;;;19.97;65.94;99651.94;5105692;28;8838;-61
2022/08/05 05:12:33;;;;;;;;;4.40;3.60;;;;;20.02;65.57;99641.34;5094876;28;8857;-63
2022/08/05 05:15:03;;;;;;;;;8.00;5.00;;;;;20.07;65.94;99641.69;5094788;28;8830;-61
2022/08/05 05:17:30;;;;;;;;;5.00;5.00;;;;;20.13;65.37;99651.75;5094372;28;8842;-63
2022/08/05 05:20:18;;;;;;;;;6.60;5.40;;;;;20.18;65.16;99641.16;5105270;28;8840;-61
2022/08/05 05:22:46;;;;;;;;;7.00;7.00;;;;;20.25;65.76;99646.66;5115212;28;8979;-62
2022/08/05 05:25:14;;;;;;;;;7.00;7.00;;;;;20.26;65.04;99668.09;5114484;28;8831;-61
2022/08/05 05:27:44;;;;;;;;;8.00;7.00;;;;;20.30;65.48;99657.75;5114954;28;8849;-62
2022/08/05 05:30:22;;;;;;;;;7.00;7.00;;;;;20.37;65.63;99659.50;5102403;28;8818;-61
2022/08/05 05:32:57;;;;;;;;;5.00;4.40;;;;;20.39;65.57;99649.31;5095034;28;8826;-60
2022/08/05 05:35:27;;;;;;;;;8.00;7.20;;;;;20.44;65.46;99629.81;5093841;28;8846;-61
2022/08/05 05:38:01;;;;;;;;;7.00;7.00;;;;;20.48;65.51;99641.94;5095283;28;8846;-63
2022/08/05 05:40:31;;;;;;;;;6.60;6.20;;;;;20.49;66.08;99666.06;5106996;28;8836;-61
2022/08/05 05:43:00;;;;;;;;;7.40;7.40;;;;;20.47;65.59;99668.13;5112650;28;8845;-61
2022/08/05 05:45:28;;;;;;;;;4.80;4.60;;;;;20.49;66.43;99674.19;5112635;28;8831;-61
2022/08/05 05:47:58;;;;;;;;;9.80;9.60;;;;;20.52;65.99;99676.53;5112553;28;8847;-61
2022/08/05 05:50:34;;;;;;;;;10.00;9.80;;;;;20.52;66.40;99675.69;5098892;28;8848;-62
2022/08/05 05:53:12;;;;;;;;;10.60;9.80;;;;;20.49;66.52;99681.47;5094749;28;8971;-64
2022/08/05 05:55:48;;;;;;;;;8.80;7.80;;;;;20.47;66.49;99687.09;5101289;28;8842;-61
2022/08/05 05:58:27;;;;;;;;;10.80;10.60;;;;;20.45;66.49;99683.72;5100242;28;8830;-62
2022/08/05 06:00:59;;;;;;;;;10.20;10.00;;;;;20.46;66.33;99688.13;5115808;28;8951;-61
2022/08/05 06:03:39;;;;;;;;;11.20;11.00;;;;;20.50;66.34;99673.19;5120773;28;8828;-61
2022/08/05 06:06:27;;;;;;;;;10.40;9.80;;;;;20.57;66.13;99657.88;5121230;28;8852;-62
2022/08/05 06:09:01;;;;;;;;;11.60;11.00;;;;;20.65;66.32;99633.38;5120208;28;8851;-61
2022/08/05 06:11:30;;;;;;;;;11.40;10.60;;;;;20.74;66.34;99649.28;5120744;28;9033;-62
2022/08/05 06:13:58;;;;;;;;;11.80;11.00;;;;;20.80;65.86;99658.50;5121445;28;8840;-61
2022/08/05 06:16:26;;;;;;;;;13.80;12.20;;;;;20.81;65.74;99676.44;5121125;28;8967;-62
2022/08/05 06:19:03;;;;;;;;;11.00;9.80;;;;;20.81;65.78;99657.47;5120443;28;8917;-62
2022/08/05 06:21:33;;;;;;;;;11.40;11.40;;;;;20.84;65.83;99659.78;5100938;28;8943;-63
2022/08/05 06:24:04;;;;;;;;;15.20;13.20;;;;;20.86;65.43;99657.72;5100708;28;9584;-62
2022/08/05 06:26:34;;;;;;;;;14.00;12.80;;;;;20.94;65.54;99655.75;5099989;28;8858;-61
2022/08/05 06:29:02;;;;;;;;;10.40;10.40;;;;;21.00;65.38;99656.84;5100941;28;8855;-61
2022/08/05 06:31:50;;;;;;;;;13.00;12.20;;;;;21.01;65.77;99666.63;5114128;28;8816;-62
2022/08/05 06:34:17;;;;;;;;;12.40;11.00;;;;;21.01;65.54;99661.22;5135026;27;9654;-62
2022/08/05 06:36:46;;;;;;;;;15.40;14.40;;;;;20.97;65.60;99655.34;5141741;27;8841;-61
2022/08/05 06:39:25;;;;;;;;;14.00;11.00;;;;;20.96;65.75;99658.28;5140990;27;8813;-63
2022/08/05 06:41:55;;;;;;;;;16.80;14.20;;;;;20.98;65.92;99659.75;5127322;27;8839;-62
2022/08/05 06:44:25;;;;;;;;;13.20;12.20;;;;;21.01;66.11;99661.22;5121510;28;8828;-62
2022/08/05 06:46:52;;;;;;;;;15.20;14.00;;;;;21.05;65.28;99667.94;5122353;28;8965;-63
2022/08/05 06:49:21;;;;;;;;;14.80;14.60;;;;;21.08;65.78;99670.22;5122087;28;8855;-61
2022/08/05 06:52:09;;;;;;;;;16.00;13.20;;;;;21.11;65.32;99675.28;5138922;27;8822;-61
2022/08/05 06:54:57;;;;;;;;;13.00;11.80;;;;;21.15;65.41;99681.97;5140216;27;8838;-61
2022/08/05 06:57:25;;;;;;;;;16.20;14.00;;;;;21.15;65.52;99693.66;5141216;27;8830;-60
2022/08/05 07:00:12;;;;;;;;;14.80;14.20;;;;;21.08;65.44;99700.03;5140355;27;8830;-60
2022/08/05 07:02:48;;;;;;;;;13.80;13.00;;;;;20.98;65.76;99703.09;5139762;27;8896;-61
2022/08/05 07:05:21;;;;;;;;;17.80;16.00;;;;;20.92;65.92;99705.72;5119940;27;8900;-61
2022/08/05 07:08:03;;;;;;;;;16.00;14.20;;;;;20.91;66.32;99709.44;5137074;27;8837;-60
2022/08/05 07:10:31;;;;;;;;;14.00;14.00;;;;;20.91;66.24;99704.03;5137157;27;8871;-62
2022/08/05 07:19:09;;;;;;;;;15.00;15.00;;;;;20.83;66.50;99725.78;5137044;27;8854;-61
2022/08/05 07:21:42;;;;;;;;;18.60;17.40;;;;;20.77;66.75;99728.44;5136833;27;8818;-61
2022/08/05 07:24:27;;;;;;;;;19.00;17.80;;;;;20.72;66.61;99737.13;5135634;27;9187;-61
2022/08/05 07:26:56;;;;;;;;;18.80;17.20;;;;;20.66;66.77;99745.16;5135921;27;9538;-61
2022/08/05 07:29:25;;;;;;;;;23.20;20.40;;;;;20.60;67.30;99738.66;5135275;27;8964;-60
2022/08/05 07:32:13;;;;;;;;;20.60;18.20;;;;;20.62;67.08;99735.75;5135011;27;8972;-61
2022/08/05 07:34:41;;;;;;;;;14.80;13.20;;;;;20.57;66.86;99739.06;5136136;27;8882;-61
2022/08/05 07:37:08;;;;;;;;;18.60;16.60;;;;;20.54;67.29;99744.81;5135854;27;8829;-61
2022/08/05 07:39:38;;;;;;;;;24.20;21.60;;;;;20.53;67.74;99740.44;5134359;27;8868;-61
2022/08/05 07:42:26;;;;;;;;;18.80;17.20;;;;;20.47;67.66;99741.19;5119189;27;8880;-60
2022/08/05 07:45:00;;;;;;;;;19.40;15.20;;;;;20.46;68.43;99744.13;5134237;27;8855;-60
2022/08/05 07:47:28;;;;;;;;;20.40;19.20;;;;;20.41;67.91;99750.06;5134582;27;9529;-61
2022/08/05 07:50:08;;;;;;;;;20.20;17.80;;;;;20.38;68.52;99745.03;5133936;27;8829;-61
2022/08/05 07:52:36;;;;;;;;;17.20;16.60;;;;;20.37;68.71;99756.03;5132861;27;8829;-61
2022/08/05 07:55:04;;;;;;;;;20.80;19.00;;;;;20.36;68.38;99763.34;5133700;27;8817;-60
2022/08/05 07:57:52;;;;;;;;;20.60;20.00;;;;;20.37;68.50;99762.31;5133348;27;8876;-62
2022/08/05 08:00:29;;;;;;;;;18.00;15.40;;;;;20.36;69.35;99763.34;5132615;27;8825;-61
2022/08/05 08:02:57;;;;;;;;;20.80;19.20;;;;;20.30;69.26;99779.47;5133550;27;8864;-61
2022/08/05 08:05:42;;;;;;;;;17.20;15.40;;;;;20.25;69.69;99781.91;5133783;27;8868;-61
2022/08/05 08:08:15;;;;;;;;;14.40;13.40;;;;;20.22;69.41;99790.38;5135230;27;8834;-61
2022/08/05 08:10:46;;;;;;;;;14.40;14.00;;;;;20.17;69.53;99788.25;5135412;27;9011;-61
2022/08/05 08:13:15;;;;;;;;;14.40;13.40;;;;;20.12;70.03;99792.53;5134721;27;8841;-62
2022/08/05 08:15:55;;;;;;;;;18.00;16.60;;;;;20.08;69.70;99794.78;5132861;27;8833;-61
2022/08/05 08:18:44;;;;;;;;;13.20;13.20;;;;;20.06;70.05;99802.25;5133279;27;9007;-62
2022/08/05 08:21:17;;;;;;;;;11.40;11.00;;;;;20.02;70.17;99805.47;5133823;27;8829;-61
2022/08/05 08:23:44;;;;;;;;;8.40;7.60;;;;;20.02;70.37;99803.59;5134268;27;8976;-61
2022/08/05 08:26:31;;;;;;;;;10.00;10.00;;;;;19.98;70.44;99809.56;5136395;27;8872;-61
2022/08/05 08:28:59;;;;;;;;;14.40;14.00;;;;;19.95;70.29;99809.94;5136177;27;9521;-61
2022/08/05 08:31:46;;;;;;;;;16.00;14.40;;;;;19.88;70.55;99812.50;5136223;27;8869;-61
2022/08/05 08:34:14;;;;;;;;;12.40;11.20;;;;;19.87;70.86;99820.81;5134689;27;8830;-61
2022/08/05 08:36:45;;;;;;;;;14.60;13.20;;;;;19.83;70.80;99833.00;5135589;27;8840;-62
2022/08/05 08:39:22;;;;;;;;;14.80;11.40;;;;;19.80;71.37;99831.50;5134992;27;8834;-61
2022/08/05 08:41:50;;;;;;;;;15.40;14.00;;;;;19.81;71.07;99833.19;5135644;27;8861;-61
2022/08/05 08:44:28;;;;;;;;;21.80;19.20;;;;;19.84;70.68;99840.09;5135599;27;8845;-61
2022/08/05 08:47:16;;;;;;;;;17.60;15.60;;;;;19.79;71.13;99854.16;5135180;27;8849;-61
2022/08/05 08:50:04;;;;;;;;;17.80;14.40;;;;;19.75;71.14;99860.97;5134862;27;8818;-62
2022/08/05 08:52:52;;;;;;;;;15.20;14.80;;;;;19.69;71.41;99868.94;5134323;27;8837;-62
2022/08/05 08:55:20;;;;;;;;;18.40;14.40;;;;;19.65;71.73;99868.47;5134705;27;8826;-62
2022/08/05 08:58:08;;;;;;;;;15.20;14.80;;;;;19.58;71.17;99872.91;5134634;27;8857;-60
2022/08/05 09:00:39;;;;;;;;;15.40;13.60;;;;;19.50;71.46;99872.97;5134374;27;9510;-61
2022/08/05 09:03:08;;;;;;;;;15.60;15.20;;;;;19.47;71.84;99875.19;5134034;27;8818;-61
2022/08/05 09:05:36;;;;;;;;;14.80;13.80;;;;;19.44;72.43;99879.13;5133269;27;8833;-61
2022/08/05 09:08:24;;;;;;;;;15.20;13.40;;;;;19.42;72.05;99881.16;5132893;27;9535;-61
2022/08/05 09:10:56;;;;;;;;;16.00;14.00;;;;;19.41;71.96;99894.84;5133514;27;9016;-61
2022/08/05 09:13:24;;;;;;;;;10.40;10.00;;;;;19.37;71.96;99894.38;5132895;27;8952;-61
2022/08/05 09:15:58;;;;;;;;;14.60;13.00;;;;;19.36;72.57;99900.75;5132187;27;8826;-61
2022/08/05 09:18:26;;;;;;;;;10.00;10.00;;;;;19.34;72.84;99899.28;5132486;27;8961;-61
2022/08/05 09:20:56;;;;;;;;;11.60;9.80;;;;;19.32;72.26;99912.09;5133284;27;8856;-62
2022/08/05 09:23:24;;;;;;;;;10.40;10.20;;;;;19.25;72.68;99912.00;5134110;27;9615;-62
2022/08/05 09:25:55;;;;;;;;;14.00;10.20;;;;;19.19;72.28;99918.09;5132836;27;8825;-60
2022/08/05 09:28:30;;;;;;;;;9.60;9.60;;;;;19.18;72.98;99920.97;5131232;27;8853;-61
2022/08/05 09:31:03;;;;;;;;;12.00;10.40;;;;;19.13;72.67;99923.34;5133238;27;8860;-62
2022/08/05 09:33:51;;;;;;;;;9.00;8.60;;;;;19.12;72.97;99927.88;5132685;27;8862;-63
2022/08/05 09:36:20;;;;;;;;;10.20;10.20;;;;;19.11;72.28;99939.69;5133815;27;8901;-61
2022/08/05 09:38:54;;;;;;;;;4.00;4.00;;;;;19.14;72.81;99931.28;5134178;27;8826;-62
2022/08/05 09:41:23;;;;;;;;;7.40;6.00;;;;;19.16;72.49;99934.63;5133161;27;8877;-61
2022/08/05 09:43:52;;;;;;;;;11.20;10.40;;;;;19.21;72.16;99940.34;5133551;27;8841;-63
2022/08/05 09:46:21;;;;;;;;;12.40;10.60;;;;;19.20;71.98;99933.28;5131699;27;8822;-63
2022/08/05 09:48:54;;;;;;;;;12.00;10.00;;;;;19.14;71.83;99942.06;5132401;27;8826;-62
2022/08/05 09:51:42;;;;;;;;;9.80;9.00;;;;;19.12;72.09;99937.84;5133132;27;8853;-61
2022/08/05 09:54:15;;;;;;;;;7.20;6.60;;;;;19.17;72.26;99947.09;5132532;27;9169;-63
2022/08/05 09:56:55;;;;;;;;;7.40;7.40;;;;;19.22;71.85;99950.16;5132550;27;9268;-62
2022/08/05 09:59:24;;;;;;;;;4.00;4.00;;;;;19.26;71.81;99946.06;5132436;27;8825;-62
2022/08/05 10:01:54;;;;;;;;;9.60;8.80;;;;;19.29;71.68;99943.03;5133629;27;8877;-63
2022/08/05 10:04:25;;;;;;;;;6.00;5.60;;;;;19.35;71.70;99947.69;5133167;27;8898;-61
2022/08/05 10:06:55;;;;;;;;;8.40;8.40;;;;;19.44;71.17;99946.66;5132977;27;8910;-62
2022/08/05 10:09:28;;;;;;;;;8.20;7.80;;;;;19.50;71.41;99955.91;5131128;27;8830;-61
2022/08/05 10:12:11;;;;;;;;;10.80;10.20;;;;;19.53;71.28;99959.09;5130334;27;9632;-61
2022/08/05 10:14:59;;;;;;;;;8.20;7.80;;;;;19.62;70.86;99962.56;5128811;27;9510;-61
2022/08/05 10:17:27;;;;;;;;;7.00;7.00;;;;;19.66;70.77;99967.44;5130557;27;8846;-61
2022/08/05 10:20:06;;;;;;;;;5.40;5.20;;;;;19.72;70.43;99968.59;5130682;27;8841;-62
2022/08/05 10:22:37;;;;;;;;;6.60;6.60;;;;;19.72;70.21;99966.72;5131228;27;8830;-62
2022/08/05 10:25:15;;;;;;;;;9.60;8.20;;;;;19.69;70.56;99974.34;5130504;27;8845;-62
2022/08/05 10:27:43;;;;;;;;;7.00;7.00;;;;;19.69;70.46;99979.75;5130642;27;8984;-62
2022/08/05 10:30:31;;;;;;;;;10.20;8.80;;;;;19.67;70.34;99981.78;5131279;27;8852;-61
2022/08/05 10:33:18;;;;;;;;;7.40;5.80;;;;;19.62;70.63;99990.44;5131120;27;9246;-61
2022/08/05 10:35:47;;;;;;;;;9.20;8.40;;;;;19.56;70.85;99985.75;5129628;27;8847;-61
2022/08/05 10:38:26;;;;;;;;;6.20;5.20;;;;;19.52;70.40;99984.44;5132331;27;8856;-61
2022/08/05 10:40:55;;;;;;;;;1.00;1.00;;;;;19.52;70.49;99992.53;5117176;27;8873;-61
2022/08/05 10:43:24;;;;;;;;;7.00;6.80;;;;;19.50;70.70;99997.25;5135660;27;8887;-61
2022/08/05 10:46:02;;;;;;;;;6.80;4.80;;;;;19.49;71.20;100008.25;5135189;27;9555;-60
2022/08/05 10:48:33;;;;;;;;;10.00;7.40;;;;;19.50;70.79;100018.03;5133542;27;8825;-61
2022/08/05 10:51:21;;;;;;;;;6.20;6.20;;;;;19.50;70.83;100008.06;5132958;27;8886;-60
2022/08/05 10:53:55;;;;;;;;;5.40;5.40;;;;;19.54;70.45;100006.69;5132708;27;8833;-60
2022/08/05 10:56:27;;;;;;;;;5.40;5.20;;;;;19.60;70.10;100013.25;5131766;27;8857;-61
2022/08/05 10:58:56;;;;;;;;;7.60;7.60;;;;;19.66;70.08;100016.06;5134048;27;9522;-60
2022/08/05 11:01:33;;;;;;;;;7.60;7.40;;;;;19.74;70.48;100037.69;5135885;27;8841;-60
2022/08/05 11:04:21;;;;;;;;;4.00;4.00;;;;;19.78;69.87;100033.59;5135720;27;8860;-60
2022/08/05 11:06:52;;;;;;;;;5.40;4.40;;;;;19.79;69.79;100027.16;5136527;27;8837;-60
2022/08/05 11:09:22;;;;;;;;;6.60;5.20;;;;;19.81;69.88;100035.09;5135753;27;8833;-61
2022/08/05 11:12:05;;;;;;;;;6.60;5.80;;;;;19.80;70.22;100036.13;5135960;27;8869;-61
2022/08/05 11:14:36;;;;;;;;;7.80;5.60;;;;;19.83;69.65;100051.97;5136339;27;8898;-61
2022/08/05 11:17:23;;;;;;;;;5.60;4.60;;;;;19.80;69.89;100061.25;5135994;27;9628;-63
2022/08/05 11:20:11;;;;;;;;;9.80;8.00;;;;;19.82;70.10;100056.53;5135227;27;8873;-61
2022/08/05 11:22:47;;;;;;;;;4.00;4.00;;;;;19.82;69.94;100061.94;5135180;27;8906;-61
2022/08/05 11:25:20;;;;;;;;;7.20;7.20;;;;;19.88;69.67;100071.19;5132952;27;8822;-60
2022/08/05 11:28:07;;;;;;;;;10.20;7.20;;;;;19.92;69.70;100076.06;5133119;27;8875;-61
2022/08/05 11:30:43;;;;;;;;;6.60;6.20;;;;;19.93;69.84;100080.47;5132967;27;8834;-61
2022/08/05 11:33:19;;;;;;;;;5.00;5.00;;;;;19.94;69.33;100084.84;5132538;27;8888;-61
2022/08/05 11:35:47;;;;;;;;;10.80;7.60;;;;;19.96;69.98;100085.50;5131552;27;8818;-62
2022/08/05 11:38:35;;;;;;;;;7.00;7.00;;;;;19.96;69.57;100096.31;5131748;27;8883;-60
2022/08/05 11:41:12;;;;;;;;;10.00;9.60;;;;;19.98;69.83;100099.69;5113987;27;8911;-60
2022/08/05 11:44:00;;;;;;;;;5.80;5.80;;;;;20.06;69.73;100086.16;5130245;27;8970;-61
2022/08/05 11:46:34;;;;;;;;;8.20;7.00;;;;;20.22;69.49;100087.91;5130762;27;8860;-60
2022/08/05 11:49:02;;;;;;;;;9.60;7.60;;;;;20.34;69.39;100089.19;5130762;27;9534;-60
2022/08/05 11:51:30;;;;;;;;;7.40;7.20;;;;;20.47;68.70;100098.38;5131308;27;9530;-61
2022/08/05 11:54:16;;;;;;;;;11.80;10.00;;;;;20.59;68.21;100098.78;5132709;27;8862;-60
2022/08/05 11:56:47;;;;;;;;;11.60;10.40;;;;;20.70;68.53;100098.38;5133644;27;8864;-60
2022/08/05 11:59:17;;;;;;;;;10.20;9.40;;;;;20.77;68.30;100103.69;5133775;27;8825;-61
2022/08/05 12:01:47;;;;;;;;;14.00;13.40;;;;;20.93;67.61;100094.59;5133507;27;9533;-62
2022/08/05 12:04:18;;;;;;;;;12.80;11.40;;;;;21.08;67.59;100104.44;5135366;27;8834;-60
2022/08/05 12:06:48;;;;;;;;;11.20;11.00;;;;;21.34;66.83;100090.44;5134654;27;8840;-60
2022/08/05 12:09:18;;;;;;;;;11.20;11.20;;;;;21.72;66.18;100087.44;5133675;27;8845;-61
2022/08/05 12:11:46;;;;;;;;;10.80;9.00;;;;;22.16;64.94;100090.06;5133640;27;8864;-61